sensor_id;sensor_type;location;lat;lon;timestamp;P1;durP1;ratioP1;P2;durP2;ratioP2
18596;SDS011;9428;50.950;6.912;2023-02-23T00:01:25;48.53;;;30.42;;
18596;SDS011;9428;50.950;6.912;2023-02-23T00:04:13;43.65;;;28.40;;
18596;SDS011;9428;50.950;6.912;2023-02-23T00:07:03;46.42;;;29.30;;
18596;SDS011;9428;50.950;6.912;2023-02-23T00:09:51;43.10;;;29.65;;
18596;SDS011;9428;50.950;6.912;2023-02-23T00:12:40;43.17;;;29.63;;
18596;SDS011;9428;50.950;6.912;2023-02-23T00:15:28;44.90;;;29.90;;
18596;SDS011;9428;50.950;6.912;2023-02-23T00:18:16;45.50;;;29.90;;
18596;SDS011;9428;50.950;6.912;2023-02-23T00:21:05;43.28;;;29.05;;
18596;SDS011;9428;50.950;6.912;2023-02-23T00:23:53;40.22;;;28.35;;
18596;SDS011;9428;50.950;6.912;2023-02-23T00:26:41;47.30;;;30.45;;
18596;SDS011;9428;50.950;6.912;2023-02-23T00:29:31;47.13;;;30.15;;
18596;SDS011;9428;50.950;6.912;2023-02-23T00:32:23;45.53;;;30.02;;
18596;SDS011;9428;50.950;6.912;2023-02-23T00:35:11;49.22;;;32.33;;
18596;SDS011;9428;50.950;6.912;2023-02-23T00:38:03;50.97;;;32.50;;
18596;SDS011;9428;50.950;6.912;2023-02-23T00:40:51;49.35;;;33.35;;
18596;SDS011;9428;50.950;6.912;2023-02-23T00:43:38;50.97;;;31.30;;
18596;SDS011;9428;50.950;6.912;2023-02-23T00:46:33;51.25;;;31.33;;
18596;SDS011;9428;50.950;6.912;2023-02-23T00:49:21;54.33;;;32.00;;
18596;SDS011;9428;50.950;6.912;2023-02-23T00:52:08;51.42;;;31.25;;
18596;SDS011;9428;50.950;6.912;2023-02-23T00:54:55;49.58;;;32.13;;
18596;SDS011;9428;50.950;6.912;2023-02-23T00:57:42;48.65;;;31.70;;
18596;SDS011;9428;50.950;6.912;2023-02-23T01:00:30;50.65;;;33.03;;
18596;SDS011;9428;50.950;6.912;2023-02-23T01:03:18;50.63;;;32.80;;
18596;SDS011;9428;50.950;6.912;2023-02-23T01:06:07;53.28;;;33.63;;
18596;SDS011;9428;50.950;6.912;2023-02-23T01:08:55;53.88;;;33.28;;
18596;SDS011;9428;50.950;6.912;2023-02-23T01:11:43;54.00;;;32.42;;
18596;SDS011;9428;50.950;6.912;2023-02-23T01:14:31;53.85;;;33.40;;
18596;SDS011;9428;50.950;6.912;2023-02-23T01:17:20;51.92;;;33.50;;
18596;SDS011;9428;50.950;6.912;2023-02-23T01:20:09;56.38;;;35.92;;
18596;SDS011;9428;50.950;6.912;2023-02-23T01:23:02;53.35;;;34.55;;
18596;SDS011;9428;50.950;6.912;2023-02-23T01:25:51;60.08;;;34.85;;
18596;SDS011;9428;50.950;6.912;2023-02-23T01:28:39;56.50;;;35.30;;
18596;SDS011;9428;50.950;6.912;2023-02-23T01:31:26;55.20;;;35.08;;
18596;SDS011;9428;50.950;6.912;2023-02-23T01:34:14;56.83;;;35.45;;
18596;SDS011;9428;50.950;6.912;2023-02-23T01:37:03;52.45;;;33.42;;
18596;SDS011;9428;50.950;6.912;2023-02-23T01:39:50;52.45;;;33.80;;
18596;SDS011;9428;50.950;6.912;2023-02-23T01:42:38;53.97;;;36.10;;
18596;SDS011;9428;50.950;6.912;2023-02-23T01:45:27;57.13;;;35.00;;
18596;SDS011;9428;50.950;6.912;2023-02-23T01:48:17;56.88;;;35.00;;
18596;SDS011;9428;50.950;6.912;2023-02-23T01:51:07;59.67;;;36.10;;
18596;SDS011;9428;50.950;6.912;2023-02-23T01:54:01;60.92;;;36.10;;
18596;SDS011;9428;50.950;6.912;2023-02-23T01:56:54;54.83;;;35.63;;
18596;SDS011;9428;50.950;6.912;2023-02-23T01:59:44;54.80;;;35.92;;
18596;SDS011;9428;50.950;6.912;2023-02-23T02:02:33;58.20;;;36.08;;
18596;SDS011;9428;50.950;6.912;2023-02-23T02:05:20;58.72;;;38.05;;
18596;SDS011;9428;50.950;6.912;2023-02-23T02:08:08;58.67;;;36.45;;
18596;SDS011;9428;50.950;6.912;2023-02-23T02:10:58;57.55;;;37.92;;
18596;SDS011;9428;50.950;6.912;2023-02-23T02:13:53;62.50;;;38.42;;
18596;SDS011;9428;50.950;6.912;2023-02-23T02:16:46;61.25;;;38.38;;
18596;SDS011;9428;50.950;6.912;2023-02-23T02:19:58;59.67;;;37.72;;
18596;SDS011;9428;50.950;6.912;2023-02-23T02:23:31;53.63;;;35.90;;
18596;SDS011;9428;50.950;6.912;2023-02-23T02:26:48;62.25;;;36.78;;
18596;SDS011;9428;50.950;6.912;2023-02-23T02:33:31;61.58;;;37.20;;
18596;SDS011;9428;50.950;6.912;2023-02-23T02:39:51;59.78;;;37.00;;
18596;SDS011;9428;50.950;6.912;2023-02-23T02:43:00;58.92;;;37.67;;
18596;SDS011;9428;50.950;6.912;2023-02-23T02:45:58;55.47;;;34.70;;
18596;SDS011;9428;50.950;6.912;2023-02-23T02:48:51;54.95;;;35.55;;
18596;SDS011;9428;50.950;6.912;2023-02-23T02:51:45;56.65;;;37.45;;
18596;SDS011;9428;50.950;6.912;2023-02-23T02:54:36;59.90;;;36.50;;
18596;SDS011;9428;50.950;6.912;2023-02-23T02:57:26;60.30;;;36.78;;
18596;SDS011;9428;50.950;6.912;2023-02-23T03:00:16;58.40;;;38.13;;
18596;SDS011;9428;50.950;6.912;2023-02-23T03:03:27;61.25;;;37.35;;
18596;SDS011;9428;50.950;6.912;2023-02-23T03:06:36;63.28;;;38.65;;
18596;SDS011;9428;50.950;6.912;2023-02-23T03:09:51;60.83;;;37.70;;
18596;SDS011;9428;50.950;6.912;2023-02-23T03:13:04;60.80;;;38.40;;
18596;SDS011;9428;50.950;6.912;2023-02-23T03:16:20;58.78;;;36.83;;
18596;SDS011;9428;50.950;6.912;2023-02-23T03:19:29;65.28;;;39.45;;
18596;SDS011;9428;50.950;6.912;2023-02-23T03:22:37;60.38;;;36.95;;
18596;SDS011;9428;50.950;6.912;2023-02-23T03:25:53;62.45;;;40.70;;
18596;SDS011;9428;50.950;6.912;2023-02-23T03:29:06;65.43;;;39.60;;
18596;SDS011;9428;50.950;6.912;2023-02-23T03:32:18;66.85;;;39.33;;
18596;SDS011;9428;50.950;6.912;2023-02-23T03:35:29;59.95;;;40.08;;
18596;SDS011;9428;50.950;6.912;2023-02-23T03:38:39;65.40;;;40.78;;
18596;SDS011;9428;50.950;6.912;2023-02-23T03:41:49;64.45;;;39.30;;
18596;SDS011;9428;50.950;6.912;2023-02-23T03:44:58;64.40;;;40.22;;
18596;SDS011;9428;50.950;6.912;2023-02-23T03:48:08;65.10;;;40.05;;
18596;SDS011;9428;50.950;6.912;2023-02-23T03:51:15;67.30;;;40.15;;
18596;SDS011;9428;50.950;6.912;2023-02-23T03:54:24;71.10;;;41.53;;
18596;SDS011;9428;50.950;6.912;2023-02-23T03:57:35;59.00;;;39.70;;
18596;SDS011;9428;50.950;6.912;2023-02-23T04:00:43;61.22;;;39.47;;
18596;SDS011;9428;50.950;6.912;2023-02-23T04:03:50;62.17;;;39.28;;
18596;SDS011;9428;50.950;6.912;2023-02-23T04:06:57;64.88;;;40.72;;
18596;SDS011;9428;50.950;6.912;2023-02-23T04:10:05;60.65;;;40.53;;
18596;SDS011;9428;50.950;6.912;2023-02-23T04:13:16;58.83;;;38.85;;
18596;SDS011;9428;50.950;6.912;2023-02-23T04:16:06;64.70;;;42.25;;
18596;SDS011;9428;50.950;6.912;2023-02-23T04:18:53;64.90;;;39.22;;
18596;SDS011;9428;50.950;6.912;2023-02-23T04:21:40;61.83;;;39.88;;
18596;SDS011;9428;50.950;6.912;2023-02-23T04:24:28;65.88;;;41.03;;
18596;SDS011;9428;50.950;6.912;2023-02-23T04:27:15;60.85;;;40.20;;
18596;SDS011;9428;50.950;6.912;2023-02-23T04:30:05;65.45;;;41.72;;
18596;SDS011;9428;50.950;6.912;2023-02-23T04:32:55;65.35;;;40.00;;
18596;SDS011;9428;50.950;6.912;2023-02-23T04:35:44;63.13;;;41.45;;
18596;SDS011;9428;50.950;6.912;2023-02-23T04:38:32;67.15;;;41.60;;
18596;SDS011;9428;50.950;6.912;2023-02-23T04:41:19;66.10;;;40.05;;
18596;SDS011;9428;50.950;6.912;2023-02-23T04:44:06;63.50;;;40.75;;
18596;SDS011;9428;50.950;6.912;2023-02-23T04:46:56;68.05;;;42.00;;
18596;SDS011;9428;50.950;6.912;2023-02-23T04:49:43;67.68;;;40.70;;
18596;SDS011;9428;50.950;6.912;2023-02-23T04:52:30;67.95;;;40.05;;
18596;SDS011;9428;50.950;6.912;2023-02-23T04:55:20;73.40;;;41.17;;
18596;SDS011;9428;50.950;6.912;2023-02-23T04:58:07;71.20;;;41.30;;
18596;SDS011;9428;50.950;6.912;2023-02-23T05:01:02;69.18;;;41.78;;
18596;SDS011;9428;50.950;6.912;2023-02-23T05:03:52;70.55;;;41.92;;
18596;SDS011;9428;50.950;6.912;2023-02-23T05:06:40;72.28;;;41.08;;
18596;SDS011;9428;50.950;6.912;2023-02-23T05:09:28;73.72;;;41.65;;
18596;SDS011;9428;50.950;6.912;2023-02-23T05:12:15;79.00;;;42.78;;
18596;SDS011;9428;50.950;6.912;2023-02-23T05:15:03;73.68;;;41.60;;
18596;SDS011;9428;50.950;6.912;2023-02-23T05:17:50;82.15;;;44.78;;
18596;SDS011;9428;50.950;6.912;2023-02-23T05:20:40;80.00;;;43.05;;
18596;SDS011;9428;50.950;6.912;2023-02-23T05:23:29;77.18;;;42.00;;
18596;SDS011;9428;50.950;6.912;2023-02-23T05:26:16;76.55;;;42.53;;
18596;SDS011;9428;50.950;6.912;2023-02-23T05:29:03;76.57;;;43.78;;
18596;SDS011;9428;50.950;6.912;2023-02-23T05:31:51;80.43;;;42.10;;
18596;SDS011;9428;50.950;6.912;2023-02-23T05:34:38;81.82;;;43.35;;
18596;SDS011;9428;50.950;6.912;2023-02-23T05:37:27;74.38;;;43.42;;
18596;SDS011;9428;50.950;6.912;2023-02-23T05:40:15;72.53;;;43.28;;
18596;SDS011;9428;50.950;6.912;2023-02-23T05:43:02;75.45;;;42.45;;
18596;SDS011;9428;50.950;6.912;2023-02-23T05:45:49;76.82;;;41.75;;
18596;SDS011;9428;50.950;6.912;2023-02-23T05:48:36;71.80;;;41.83;;
18596;SDS011;9428;50.950;6.912;2023-02-23T05:51:24;74.60;;;42.53;;
18596;SDS011;9428;50.950;6.912;2023-02-23T05:54:13;75.15;;;43.28;;
18596;SDS011;9428;50.950;6.912;2023-02-23T05:57:00;74.75;;;43.47;;
18596;SDS011;9428;50.950;6.912;2023-02-23T05:59:47;73.10;;;43.20;;
18596;SDS011;9428;50.950;6.912;2023-02-23T06:02:35;75.63;;;42.03;;
18596;SDS011;9428;50.950;6.912;2023-02-23T06:05:22;73.15;;;43.05;;
18596;SDS011;9428;50.950;6.912;2023-02-23T06:08:09;78.22;;;44.55;;
18596;SDS011;9428;50.950;6.912;2023-02-23T06:10:58;80.75;;;43.83;;
18596;SDS011;9428;50.950;6.912;2023-02-23T06:13:45;70.93;;;43.00;;
18596;SDS011;9428;50.950;6.912;2023-02-23T06:16:33;70.40;;;41.28;;
18596;SDS011;9428;50.950;6.912;2023-02-23T06:19:20;69.28;;;41.55;;
18596;SDS011;9428;50.950;6.912;2023-02-23T06:22:07;70.13;;;42.00;;
18596;SDS011;9428;50.950;6.912;2023-02-23T06:24:55;76.18;;;43.53;;
18596;SDS011;9428;50.950;6.912;2023-02-23T06:27:44;77.18;;;44.10;;
18596;SDS011;9428;50.950;6.912;2023-02-23T06:30:31;72.07;;;42.65;;
18596;SDS011;9428;50.950;6.912;2023-02-23T06:33:18;68.93;;;41.65;;
18596;SDS011;9428;50.950;6.912;2023-02-23T06:36:06;73.50;;;40.83;;
18596;SDS011;9428;50.950;6.912;2023-02-23T06:38:55;73.32;;;41.47;;
18596;SDS011;9428;50.950;6.912;2023-02-23T06:41:42;67.30;;;40.10;;
18596;SDS011;9428;50.950;6.912;2023-02-23T06:44:31;69.68;;;40.67;;
18596;SDS011;9428;50.950;6.912;2023-02-23T06:47:19;68.50;;;40.15;;
18596;SDS011;9428;50.950;6.912;2023-02-23T06:50:07;66.38;;;38.80;;
18596;SDS011;9428;50.950;6.912;2023-02-23T06:52:55;67.55;;;38.70;;
18596;SDS011;9428;50.950;6.912;2023-02-23T06:55:43;62.10;;;38.40;;
18596;SDS011;9428;50.950;6.912;2023-02-23T06:58:30;62.63;;;36.22;;
18596;SDS011;9428;50.950;6.912;2023-02-23T07:01:19;66.53;;;41.05;;
18596;SDS011;9428;50.950;6.912;2023-02-23T07:04:06;63.67;;;37.88;;
18596;SDS011;9428;50.950;6.912;2023-02-23T07:06:53;65.57;;;38.78;;
18596;SDS011;9428;50.950;6.912;2023-02-23T07:09:40;67.20;;;39.15;;
18596;SDS011;9428;50.950;6.912;2023-02-23T07:12:28;65.60;;;40.03;;
18596;SDS011;9428;50.950;6.912;2023-02-23T07:15:15;66.05;;;38.78;;
18596;SDS011;9428;50.950;6.912;2023-02-23T07:18:06;66.88;;;40.25;;
18596;SDS011;9428;50.950;6.912;2023-02-23T07:20:53;65.03;;;38.20;;
18596;SDS011;9428;50.950;6.912;2023-02-23T07:23:40;60.42;;;37.78;;
18596;SDS011;9428;50.950;6.912;2023-02-23T07:26:27;66.90;;;37.83;;
18596;SDS011;9428;50.950;6.912;2023-02-23T07:29:15;66.95;;;37.80;;
18596;SDS011;9428;50.950;6.912;2023-02-23T07:32:02;61.65;;;35.20;;
18596;SDS011;9428;50.950;6.912;2023-02-23T07:34:51;54.78;;;34.40;;
18596;SDS011;9428;50.950;6.912;2023-02-23T07:37:38;57.65;;;35.70;;
18596;SDS011;9428;50.950;6.912;2023-02-23T07:40:26;52.08;;;32.60;;
18596;SDS011;9428;50.950;6.912;2023-02-23T07:43:13;57.60;;;34.03;;
18596;SDS011;9428;50.950;6.912;2023-02-23T07:46:01;52.90;;;33.38;;
18596;SDS011;9428;50.950;6.912;2023-02-23T07:48:48;58.95;;;33.97;;
18596;SDS011;9428;50.950;6.912;2023-02-23T07:51:37;53.38;;;32.17;;
18596;SDS011;9428;50.950;6.912;2023-02-23T07:54:24;51.95;;;33.05;;
18596;SDS011;9428;50.950;6.912;2023-02-23T07:57:11;56.97;;;32.70;;
18596;SDS011;9428;50.950;6.912;2023-02-23T07:59:59;56.80;;;34.42;;
18596;SDS011;9428;50.950;6.912;2023-02-23T08:02:46;56.10;;;33.35;;
18596;SDS011;9428;50.950;6.912;2023-02-23T08:05:33;55.40;;;32.80;;
18596;SDS011;9428;50.950;6.912;2023-02-23T08:08:22;53.03;;;32.03;;
18596;SDS011;9428;50.950;6.912;2023-02-23T08:11:09;50.35;;;31.67;;
18596;SDS011;9428;50.950;6.912;2023-02-23T08:13:57;48.15;;;32.33;;
18596;SDS011;9428;50.950;6.912;2023-02-23T08:16:44;50.17;;;33.35;;
18596;SDS011;9428;50.950;6.912;2023-02-23T08:19:31;56.65;;;31.17;;
18596;SDS011;9428;50.950;6.912;2023-02-23T08:22:19;50.10;;;30.17;;
18596;SDS011;9428;50.950;6.912;2023-02-23T08:25:09;57.00;;;32.40;;
18596;SDS011;9428;50.950;6.912;2023-02-23T08:27:56;53.35;;;29.85;;
18596;SDS011;9428;50.950;6.912;2023-02-23T08:30:48;53.63;;;30.10;;
18596;SDS011;9428;50.950;6.912;2023-02-23T08:33:35;59.95;;;31.60;;
18596;SDS011;9428;50.950;6.912;2023-02-23T08:36:23;50.10;;;29.80;;
18596;SDS011;9428;50.950;6.912;2023-02-23T08:39:11;56.10;;;32.05;;
18596;SDS011;9428;50.950;6.912;2023-02-23T08:42:00;55.20;;;31.40;;
18596;SDS011;9428;50.950;6.912;2023-02-23T08:44:47;53.90;;;30.65;;
18596;SDS011;9428;50.950;6.912;2023-02-23T08:47:34;55.80;;;31.83;;
18596;SDS011;9428;50.950;6.912;2023-02-23T08:50:22;53.83;;;30.55;;
18596;SDS011;9428;50.950;6.912;2023-02-23T08:53:09;53.35;;;31.48;;
18596;SDS011;9428;50.950;6.912;2023-02-23T08:55:57;55.72;;;31.95;;
18596;SDS011;9428;50.950;6.912;2023-02-23T08:58:46;58.20;;;31.33;;
18596;SDS011;9428;50.950;6.912;2023-02-23T09:01:33;55.85;;;31.40;;
18596;SDS011;9428;50.950;6.912;2023-02-23T09:04:21;59.95;;;31.85;;
18596;SDS011;9428;50.950;6.912;2023-02-23T09:07:09;57.70;;;31.80;;
18596;SDS011;9428;50.950;6.912;2023-02-23T09:10:00;56.17;;;31.88;;
18596;SDS011;9428;50.950;6.912;2023-02-23T09:12:47;57.15;;;32.03;;
18596;SDS011;9428;50.950;6.912;2023-02-23T09:15:36;56.42;;;32.08;;
18596;SDS011;9428;50.950;6.912;2023-02-23T09:18:24;56.38;;;32.60;;
18596;SDS011;9428;50.950;6.912;2023-02-23T09:21:13;59.75;;;32.35;;
18596;SDS011;9428;50.950;6.912;2023-02-23T09:24:05;59.85;;;32.38;;
18596;SDS011;9428;50.950;6.912;2023-02-23T09:26:52;54.42;;;32.60;;
18596;SDS011;9428;50.950;6.912;2023-02-23T09:29:40;55.58;;;32.00;;
18596;SDS011;9428;50.950;6.912;2023-02-23T09:32:29;57.35;;;32.92;;
18596;SDS011;9428;50.950;6.912;2023-02-23T09:35:17;55.92;;;31.13;;
18596;SDS011;9428;50.950;6.912;2023-02-23T09:38:06;59.33;;;34.25;;
18596;SDS011;9428;50.950;6.912;2023-02-23T09:40:53;55.50;;;32.65;;
18596;SDS011;9428;50.950;6.912;2023-02-23T09:43:41;57.63;;;34.47;;
18596;SDS011;9428;50.950;6.912;2023-02-23T09:46:36;56.45;;;31.60;;
18596;SDS011;9428;50.950;6.912;2023-02-23T09:49:36;61.00;;;32.70;;
18596;SDS011;9428;50.950;6.912;2023-02-23T09:52:27;59.88;;;32.80;;
18596;SDS011;9428;50.950;6.912;2023-02-23T09:55:22;52.25;;;31.95;;
18596;SDS011;9428;50.950;6.912;2023-02-23T09:58:15;56.03;;;31.58;;
18596;SDS011;9428;50.950;6.912;2023-02-23T10:04:38;52.00;;;29.65;;
18596;SDS011;9428;50.950;6.912;2023-02-23T10:07:32;46.88;;;29.27;;
18596;SDS011;9428;50.950;6.912;2023-02-23T10:10:29;54.03;;;31.63;;
18596;SDS011;9428;50.950;6.912;2023-02-23T10:13:26;49.13;;;28.33;;
18596;SDS011;9428;50.950;6.912;2023-02-23T10:16:23;48.25;;;26.83;;
18596;SDS011;9428;50.950;6.912;2023-02-23T10:19:21;44.05;;;25.98;;
18596;SDS011;9428;50.950;6.912;2023-02-23T10:22:13;43.10;;;26.42;;
18596;SDS011;9428;50.950;6.912;2023-02-23T10:25:03;39.70;;;25.85;;
18596;SDS011;9428;50.950;6.912;2023-02-23T10:27:56;41.75;;;25.52;;
18596;SDS011;9428;50.950;6.912;2023-02-23T10:30:45;40.03;;;25.75;;
18596;SDS011;9428;50.950;6.912;2023-02-23T10:33:34;40.92;;;26.33;;
18596;SDS011;9428;50.950;6.912;2023-02-23T10:36:28;36.70;;;24.05;;
18596;SDS011;9428;50.950;6.912;2023-02-23T10:39:22;40.95;;;25.05;;
18596;SDS011;9428;50.950;6.912;2023-02-23T10:42:11;37.78;;;24.67;;
18596;SDS011;9428;50.950;6.912;2023-02-23T10:45:01;34.13;;;22.88;;
18596;SDS011;9428;50.950;6.912;2023-02-23T10:47:52;34.60;;;23.55;;
18596;SDS011;9428;50.950;6.912;2023-02-23T10:50:43;34.17;;;22.98;;
18596;SDS011;9428;50.950;6.912;2023-02-23T10:53:34;41.72;;;26.20;;
18596;SDS011;9428;50.950;6.912;2023-02-23T10:56:23;43.92;;;25.42;;
18596;SDS011;9428;50.950;6.912;2023-02-23T10:59:14;48.03;;;27.15;;
18596;SDS011;9428;50.950;6.912;2023-02-23T11:02:15;39.80;;;26.08;;
18596;SDS011;9428;50.950;6.912;2023-02-23T11:05:26;46.42;;;27.08;;
18596;SDS011;9428;50.950;6.912;2023-02-23T11:08:21;48.53;;;28.13;;
18596;SDS011;9428;50.950;6.912;2023-02-23T11:11:21;47.40;;;27.48;;
18596;SDS011;9428;50.950;6.912;2023-02-23T11:14:15;48.63;;;25.65;;
18596;SDS011;9428;50.950;6.912;2023-02-23T11:17:02;50.63;;;27.67;;
18596;SDS011;9428;50.950;6.912;2023-02-23T11:19:49;44.30;;;27.15;;
18596;SDS011;9428;50.950;6.912;2023-02-23T11:22:39;45.00;;;26.35;;
18596;SDS011;9428;50.950;6.912;2023-02-23T11:25:28;52.35;;;29.52;;
18596;SDS011;9428;50.950;6.912;2023-02-23T11:28:18;55.50;;;30.15;;
18596;SDS011;9428;50.950;6.912;2023-02-23T11:31:13;53.45;;;28.27;;
18596;SDS011;9428;50.950;6.912;2023-02-23T11:34:04;58.05;;;31.23;;
18596;SDS011;9428;50.950;6.912;2023-02-23T11:37:00;50.60;;;29.05;;
18596;SDS011;9428;50.950;6.912;2023-02-23T11:39:50;51.72;;;28.63;;
18596;SDS011;9428;50.950;6.912;2023-02-23T11:42:38;56.05;;;31.85;;
18596;SDS011;9428;50.950;6.912;2023-02-23T11:45:43;55.63;;;30.50;;
18596;SDS011;9428;50.950;6.912;2023-02-23T11:48:33;57.50;;;31.05;;
18596;SDS011;9428;50.950;6.912;2023-02-23T11:51:30;56.25;;;30.40;;
18596;SDS011;9428;50.950;6.912;2023-02-23T11:54:21;54.45;;;29.60;;
18596;SDS011;9428;50.950;6.912;2023-02-23T11:57:18;48.47;;;26.13;;
18596;SDS011;9428;50.950;6.912;2023-02-23T12:00:08;58.60;;;27.05;;
18596;SDS011;9428;50.950;6.912;2023-02-23T12:02:59;52.90;;;26.45;;
18596;SDS011;9428;50.950;6.912;2023-02-23T12:05:49;52.05;;;26.58;;
18596;SDS011;9428;50.950;6.912;2023-02-23T12:08:39;47.10;;;25.27;;
18596;SDS011;9428;50.950;6.912;2023-02-23T12:11:31;52.00;;;26.27;;
18596;SDS011;9428;50.950;6.912;2023-02-23T12:14:25;54.38;;;27.13;;
18596;SDS011;9428;50.950;6.912;2023-02-23T12:17:18;57.08;;;26.38;;
18596;SDS011;9428;50.950;6.912;2023-02-23T12:20:13;57.28;;;28.10;;
18596;SDS011;9428;50.950;6.912;2023-02-23T12:23:05;53.35;;;26.58;;
18596;SDS011;9428;50.950;6.912;2023-02-23T12:25:55;58.80;;;28.85;;
18596;SDS011;9428;50.950;6.912;2023-02-23T12:28:47;54.85;;;26.35;;
18596;SDS011;9428;50.950;6.912;2023-02-23T12:31:41;55.00;;;27.55;;
18596;SDS011;9428;50.950;6.912;2023-02-23T12:34:33;59.28;;;27.88;;
18596;SDS011;9428;50.950;6.912;2023-02-23T12:37:28;53.95;;;26.58;;
18596;SDS011;9428;50.950;6.912;2023-02-23T12:40:23;54.13;;;27.30;;
18596;SDS011;9428;50.950;6.912;2023-02-23T12:43:13;52.78;;;26.73;;
18596;SDS011;9428;50.950;6.912;2023-02-23T12:46:08;55.30;;;27.52;;
18596;SDS011;9428;50.950;6.912;2023-02-23T12:49:02;54.03;;;27.02;;
18596;SDS011;9428;50.950;6.912;2023-02-23T12:51:59;54.08;;;26.65;;
18596;SDS011;9428;50.950;6.912;2023-02-23T12:54:54;58.92;;;27.48;;
18596;SDS011;9428;50.950;6.912;2023-02-23T12:57:44;51.65;;;26.10;;
18596;SDS011;9428;50.950;6.912;2023-02-23T13:00:41;50.05;;;26.75;;
18596;SDS011;9428;50.950;6.912;2023-02-23T13:03:43;54.85;;;26.27;;
18596;SDS011;9428;50.950;6.912;2023-02-23T13:06:42;53.03;;;26.40;;
18596;SDS011;9428;50.950;6.912;2023-02-23T13:09:42;47.35;;;24.00;;
18596;SDS011;9428;50.950;6.912;2023-02-23T13:12:39;49.28;;;24.27;;
18596;SDS011;9428;50.950;6.912;2023-02-23T13:15:38;48.85;;;24.55;;
18596;SDS011;9428;50.950;6.912;2023-02-23T13:18:36;44.63;;;22.52;;
18596;SDS011;9428;50.950;6.912;2023-02-23T13:21:31;49.85;;;24.13;;
18596;SDS011;9428;50.950;6.912;2023-02-23T13:24:22;45.35;;;23.83;;
18596;SDS011;9428;50.950;6.912;2023-02-23T13:27:14;49.78;;;23.85;;
18596;SDS011;9428;50.950;6.912;2023-02-23T13:30:10;47.08;;;24.58;;
18596;SDS011;9428;50.950;6.912;2023-02-23T13:32:58;51.58;;;23.77;;
18596;SDS011;9428;50.950;6.912;2023-02-23T13:35:47;49.40;;;24.20;;
18596;SDS011;9428;50.950;6.912;2023-02-23T13:38:38;47.50;;;23.08;;
18596;SDS011;9428;50.950;6.912;2023-02-23T13:41:30;45.30;;;21.65;;
18596;SDS011;9428;50.950;6.912;2023-02-23T13:44:23;45.88;;;21.73;;
18596;SDS011;9428;50.950;6.912;2023-02-23T13:47:21;53.25;;;22.77;;
18596;SDS011;9428;50.950;6.912;2023-02-23T13:50:19;43.83;;;20.35;;
18596;SDS011;9428;50.950;6.912;2023-02-23T13:53:26;41.72;;;19.92;;
18596;SDS011;9428;50.950;6.912;2023-02-23T13:56:21;40.33;;;19.27;;
18596;SDS011;9428;50.950;6.912;2023-02-23T13:59:14;37.22;;;19.25;;
18596;SDS011;9428;50.950;6.912;2023-02-23T14:02:15;51.03;;;24.02;;
18596;SDS011;9428;50.950;6.912;2023-02-23T14:05:20;40.78;;;20.15;;
18596;SDS011;9428;50.950;6.912;2023-02-23T14:08:17;38.80;;;18.88;;
18596;SDS011;9428;50.950;6.912;2023-02-23T14:11:08;38.63;;;19.05;;
18596;SDS011;9428;50.950;6.912;2023-02-23T14:13:56;40.20;;;19.10;;
18596;SDS011;9428;50.950;6.912;2023-02-23T14:16:53;36.50;;;18.90;;
18596;SDS011;9428;50.950;6.912;2023-02-23T14:20:04;37.50;;;18.75;;
18596;SDS011;9428;50.950;6.912;2023-02-23T14:23:17;42.40;;;19.77;;
18596;SDS011;9428;50.950;6.912;2023-02-23T14:26:34;33.40;;;16.10;;
18596;SDS011;9428;50.950;6.912;2023-02-23T14:29:30;30.20;;;15.63;;
18596;SDS011;9428;50.950;6.912;2023-02-23T14:32:27;33.70;;;16.05;;
18596;SDS011;9428;50.950;6.912;2023-02-23T14:35:37;28.63;;;15.80;;
18596;SDS011;9428;50.950;6.912;2023-02-23T14:38:30;28.55;;;16.02;;
18596;SDS011;9428;50.950;6.912;2023-02-23T14:41:19;29.95;;;15.68;;
18596;SDS011;9428;50.950;6.912;2023-02-23T14:44:11;29.83;;;15.60;;
18596;SDS011;9428;50.950;6.912;2023-02-23T14:47:00;35.75;;;16.90;;
18596;SDS011;9428;50.950;6.912;2023-02-23T14:49:54;43.65;;;20.92;;
18596;SDS011;9428;50.950;6.912;2023-02-23T14:52:43;38.92;;;16.48;;
18596;SDS011;9428;50.950;6.912;2023-02-23T14:55:32;30.75;;;17.10;;
18596;SDS011;9428;50.950;6.912;2023-02-23T14:58:21;32.22;;;16.45;;
18596;SDS011;9428;50.950;6.912;2023-02-23T15:01:09;30.63;;;15.93;;
18596;SDS011;9428;50.950;6.912;2023-02-23T15:04:03;32.78;;;16.27;;
18596;SDS011;9428;50.950;6.912;2023-02-23T15:06:56;30.33;;;15.02;;
18596;SDS011;9428;50.950;6.912;2023-02-23T15:09:46;29.10;;;15.52;;
18596;SDS011;9428;50.950;6.912;2023-02-23T15:12:34;31.75;;;15.82;;
18596;SDS011;9428;50.950;6.912;2023-02-23T15:15:24;29.85;;;15.07;;
18596;SDS011;9428;50.950;6.912;2023-02-23T15:18:15;28.75;;;15.80;;
18596;SDS011;9428;50.950;6.912;2023-02-23T15:21:08;29.35;;;15.18;;
18596;SDS011;9428;50.950;6.912;2023-02-23T15:24:01;30.25;;;15.65;;
18596;SDS011;9428;50.950;6.912;2023-02-23T15:26:51;29.00;;;14.73;;
18596;SDS011;9428;50.950;6.912;2023-02-23T15:29:39;29.02;;;15.43;;
18596;SDS011;9428;50.950;6.912;2023-02-23T15:32:27;27.33;;;15.15;;
18596;SDS011;9428;50.950;6.912;2023-02-23T15:35:14;28.30;;;15.30;;
18596;SDS011;9428;50.950;6.912;2023-02-23T15:38:02;29.02;;;15.55;;
18596;SDS011;9428;50.950;6.912;2023-02-23T15:40:54;33.20;;;16.25;;
18596;SDS011;9428;50.950;6.912;2023-02-23T15:43:46;27.35;;;15.43;;
18596;SDS011;9428;50.950;6.912;2023-02-23T15:46:34;35.25;;;16.98;;
18596;SDS011;9428;50.950;6.912;2023-02-23T15:49:22;28.63;;;15.25;;
18596;SDS011;9428;50.950;6.912;2023-02-23T15:52:14;30.80;;;16.75;;
18596;SDS011;9428;50.950;6.912;2023-02-23T15:55:07;32.95;;;15.25;;
18596;SDS011;9428;50.950;6.912;2023-02-23T15:57:58;31.23;;;15.77;;
18596;SDS011;9428;50.950;6.912;2023-02-23T16:00:53;34.55;;;16.52;;
18596;SDS011;9428;50.950;6.912;2023-02-23T16:03:44;35.25;;;18.50;;
18596;SDS011;9428;50.950;6.912;2023-02-23T16:06:48;32.30;;;15.82;;
18596;SDS011;9428;50.950;6.912;2023-02-23T16:09:37;29.70;;;16.58;;
18596;SDS011;9428;50.950;6.912;2023-02-23T16:12:25;35.05;;;16.63;;
18596;SDS011;9428;50.950;6.912;2023-02-23T16:15:20;38.08;;;16.58;;
18596;SDS011;9428;50.950;6.912;2023-02-23T16:18:13;32.15;;;16.33;;
18596;SDS011;9428;50.950;6.912;2023-02-23T16:21:02;37.33;;;17.40;;
18596;SDS011;9428;50.950;6.912;2023-02-23T16:23:51;35.67;;;16.55;;
18596;SDS011;9428;50.950;6.912;2023-02-23T16:26:40;29.90;;;16.88;;
18596;SDS011;9428;50.950;6.912;2023-02-23T16:29:31;35.05;;;17.00;;
18596;SDS011;9428;50.950;6.912;2023-02-23T16:32:31;35.50;;;16.60;;
18596;SDS011;9428;50.950;6.912;2023-02-23T16:35:21;37.05;;;17.65;;
18596;SDS011;9428;50.950;6.912;2023-02-23T16:38:10;32.35;;;16.73;;
18596;SDS011;9428;50.950;6.912;2023-02-23T16:40:58;37.63;;;17.05;;
18596;SDS011;9428;50.950;6.912;2023-02-23T16:43:48;38.25;;;16.85;;
18596;SDS011;9428;50.950;6.912;2023-02-23T16:46:56;37.97;;;16.02;;
18596;SDS011;9428;50.950;6.912;2023-02-23T16:49:56;36.45;;;16.90;;
18596;SDS011;9428;50.950;6.912;2023-02-23T16:52:46;34.67;;;15.63;;
18596;SDS011;9428;50.950;6.912;2023-02-23T16:55:36;30.88;;;15.32;;
18596;SDS011;9428;50.950;6.912;2023-02-23T16:58:25;31.73;;;16.25;;
18596;SDS011;9428;50.950;6.912;2023-02-23T17:01:15;37.38;;;17.50;;
18596;SDS011;9428;50.950;6.912;2023-02-23T17:04:02;29.73;;;14.27;;
18596;SDS011;9428;50.950;6.912;2023-02-23T17:06:49;33.67;;;15.23;;
18596;SDS011;9428;50.950;6.912;2023-02-23T17:09:43;29.85;;;14.35;;
18596;SDS011;9428;50.950;6.912;2023-02-23T17:12:30;30.83;;;14.65;;